Time;durP1;ratioP1;P1;durP2;ratioP2;P2;SDS_P1;SDS_P2;PMS_P1;PMS_P2;Temp;Humidity;BMP_temperature;BMP_pressure;BME280_temperature;BME280_humidity;BME280_pressure;Samples;Min_cycle;Max_cycle;Signal;HPM_P1;HPM_P2
2022/12/29 00:01:25;;;;;;;1.60;0.50;;;;;;;;;;5024272;28;20072;-79
2022/12/29 00:03:52;;;;;;;1.90;0.80;;;;;;;;;;5006738;28;20037;-79
2022/12/29 00:06:18;;;;;;;3.23;0.50;;;;;;;;;;5023569;28;20053;-78
2022/12/29 00:08:44;;;;;;;2.17;0.63;;;;;;;;;;5005222;28;20070;-78
2022/12/29 00:11:20;;;;;;;2.50;0.50;;;;;;;;;;5010282;28;20037;-78
2022/12/29 00:16:36;;;;;;;1.73;0.60;;;;;;;;;;5024524;28;20175;-78
2022/12/29 00:19:05;;;;;;;4.00;0.50;;;;;;;;;;5019438;28;20917;-78
2022/12/29 00:35:12;;;;;;;0.77;0.20;;;;;;;;;;5024103;28;20099;-78
2022/12/29 00:45:54;;;;;;;1.63;0.30;;;;;;;;;;5022908;28;20041;-77
2022/12/29 00:51:05;;;;;;;0.30;0.10;;;;;;;;;;5023843;28;20102;-78
2022/12/29 00:53:31;;;;;;;1.10;0.40;;;;;;;;;;5004141;28;20025;-77
2022/12/29 00:55:57;;;;;;;0.90;0.20;;;;;;;;;;5004741;28;20029;-77
2022/12/29 00:58:23;;;;;;;0.33;0.10;;;;;;;;;;5002384;28;20048;-76
2022/12/29 01:00:49;;;;;;;0.10;0.10;;;;;;;;;;5003215;28;20469;-76
2022/12/29 01:03:15;;;;;;;0.33;0.27;;;;;;;;;;5004712;28;20037;-77
2022/12/29 01:05:42;;;;;;;0.30;0.20;;;;;;;;;;5009945;28;20065;-77
2022/12/29 01:08:08;;;;;;;0.40;0.13;;;;;;;;;;5025359;28;20026;-76
2022/12/29 01:10:37;;;;;;;1.17;0.20;;;;;;;;;;5005936;28;20467;-77
2022/12/29 01:13:03;;;;;;;0.40;0.20;;;;;;;;;;5023154;28;20029;-76
2022/12/29 01:15:29;;;;;;;2.43;0.20;;;;;;;;;;5004261;28;20040;-76
2022/12/29 01:17:58;;;;;;;0.30;0.13;;;;;;;;;;5021642;28;20029;-77
2022/12/29 01:20:24;;;;;;;2.33;0.20;;;;;;;;;;5021573;28;20045;-78
2022/12/29 01:22:52;;;;;;;0.20;0.10;;;;;;;;;;5009422;28;20064;-76
2022/12/29 01:25:17;;;;;;;0.30;0.20;;;;;;;;;;5022417;28;20120;-77
2022/12/29 01:27:43;;;;;;;0.10;0.10;;;;;;;;;;5003716;28;20116;-76
2022/12/29 01:30:10;;;;;;;1.17;0.10;;;;;;;;;;5008571;28;20048;-76
2022/12/29 01:32:36;;;;;;;0.33;0.20;;;;;;;;;;5007686;28;20087;-76
2022/12/29 01:35:02;;;;;;;0.10;0.10;;;;;;;;;;5023756;28;20478;-76
2022/12/29 01:37:28;;;;;;;0.33;0.10;;;;;;;;;;5025489;28;20076;-78
2022/12/29 01:39:53;;;;;;;0.43;0.17;;;;;;;;;;5003372;28;20557;-75
2022/12/29 01:42:23;;;;;;;1.50;0.40;;;;;;;;;;5003323;28;20072;-76
2022/12/29 01:44:50;;;;;;;0.73;0.30;;;;;;;;;;5005047;28;20121;-78
2022/12/29 01:47:21;;;;;;;0.60;0.20;;;;;;;;;;5003031;28;20026;-77
2022/12/29 01:49:47;;;;;;;0.57;0.20;;;;;;;;;;5006175;28;20037;-75
2022/12/29 01:52:15;;;;;;;1.90;0.20;;;;;;;;;;5007850;28;20067;-76
2022/12/29 01:54:44;;;;;;;0.67;0.20;;;;;;;;;;5024915;28;20362;-76
2022/12/29 01:57:13;;;;;;;0.67;0.20;;;;;;;;;;5008585;28;20034;-78
2022/12/29 01:59:42;;;;;;;0.30;0.20;;;;;;;;;;5004113;28;20522;-77
2022/12/29 02:02:08;;;;;;;0.77;0.30;;;;;;;;;;5010834;28;20042;-76
2022/12/29 02:04:35;;;;;;;0.53;0.30;;;;;;;;;;5006252;28;20029;-75
2022/12/29 02:07:06;;;;;;;2.10;0.43;;;;;;;;;;5008949;28;20034;-76
2022/12/29 02:09:32;;;;;;;1.13;0.40;;;;;;;;;;5007243;28;20037;-77
2022/12/29 02:11:59;;;;;;;1.40;0.40;;;;;;;;;;5026418;28;20091;-77
2022/12/29 02:14:27;;;;;;;0.67;0.40;;;;;;;;;;5012326;28;20061;-77
2022/12/29 02:17:12;;;;;;;0.93;0.47;;;;;;;;;;5025120;28;20029;-76
2022/12/29 02:19:50;;;;;;;0.80;0.40;;;;;;;;;;5008987;28;20949;-78
2022/12/29 02:22:16;;;;;;;0.30;0.30;;;;;;;;;;5011486;28;20040;-76
2022/12/29 02:24:54;;;;;;;0.80;0.37;;;;;;;;;;5024970;28;20120;-78
2022/12/29 02:27:23;;;;;;;2.37;0.77;;;;;;;;;;5012142;28;20034;-77
2022/12/29 02:29:52;;;;;;;1.30;0.50;;;;;;;;;;5006231;28;20038;-76
2022/12/29 02:32:34;;;;;;;1.97;0.40;;;;;;;;;;5023985;28;20133;-77
2022/12/29 02:35:12;;;;;;;1.80;0.60;;;;;;;;;;5005978;28;20042;-78
2022/12/29 02:37:43;;;;;;;3.13;0.43;;;;;;;;;;5026296;28;20463;-77
2022/12/29 02:40:12;;;;;;;3.23;0.60;;;;;;;;;;5005486;28;20065;-78
2022/12/29 02:42:45;;;;;;;1.00;0.30;;;;;;;;;;5012392;28;20054;-76
2022/12/29 02:45:18;;;;;;;1.42;0.20;;;;;;;;;;5006576;28;20037;-77
2022/12/29 02:47:57;;;;;;;1.73;0.30;;;;;;;;;;5011976;28;20041;-77
2022/12/29 02:50:28;;;;;;;0.90;0.40;;;;;;;;;;5007771;28;20034;-77
2022/12/29 02:53:02;;;;;;;1.10;0.40;;;;;;;;;;5025119;28;20022;-77
2022/12/29 02:55:31;;;;;;;1.37;0.50;;;;;;;;;;5006180;28;20041;-77
2022/12/29 02:58:09;;;;;;;1.77;0.50;;;;;;;;;;5025456;28;20025;-76
2022/12/29 03:00:38;;;;;;;3.17;0.50;;;;;;;;;;5025484;28;20068;-78
2022/12/29 03:03:22;;;;;;;1.70;0.40;;;;;;;;;;5006094;28;20473;-77
2022/12/29 03:06:12;;;;;;;3.03;0.40;;;;;;;;;;5008142;28;20030;-76
2022/12/29 03:09:11;;;;;;;3.03;0.50;;;;;;;;;;5023850;28;20037;-78
2022/12/29 03:17:38;;;;;;;1.87;0.50;;;;;;;;;;5024380;28;20102;-77
2022/12/29 03:20:07;;;;;;;0.60;0.50;;;;;;;;;;5011645;28;20042;-78
2022/12/29 03:22:36;;;;;;;1.53;0.40;;;;;;;;;;5004742;28;20091;-77
2022/12/29 03:25:04;;;;;;;4.00;0.53;;;;;;;;;;5011402;28;20029;-77
2022/12/29 03:27:31;;;;;;;0.70;0.30;;;;;;;;;;5007055;28;20061;-77
2022/12/29 03:30:00;;;;;;;1.47;0.50;;;;;;;;;;5024898;28;20062;-78
2022/12/29 03:32:31;;;;;;;1.33;0.43;;;;;;;;;;5010706;28;20040;-75
2022/12/29 03:34:59;;;;;;;1.00;0.50;;;;;;;;;;5004995;28;20030;-77
2022/12/29 03:37:27;;;;;;;2.10;0.40;;;;;;;;;;5005396;28;20552;-76
2022/12/29 03:39:53;;;;;;;0.53;0.30;;;;;;;;;;5024497;28;20109;-77
2022/12/29 03:42:20;;;;;;;0.87;0.23;;;;;;;;;;5024418;28;20052;-76
2022/12/29 03:44:47;;;;;;;0.23;0.13;;;;;;;;;;5003091;28;20447;-76
2022/12/29 03:47:14;;;;;;;2.73;0.20;;;;;;;;;;5004831;28;20056;-77
2022/12/29 03:49:40;;;;;;;1.30;0.23;;;;;;;;;;5003646;28;20033;-76
2022/12/29 03:52:06;;;;;;;0.50;0.40;;;;;;;;;;5004738;28;20084;-77
2022/12/29 03:54:33;;;;;;;2.07;0.20;;;;;;;;;;5011079;28;20022;-76
2022/12/29 03:57:01;;;;;;;0.77;0.30;;;;;;;;;;5024702;28;20033;-76
2022/12/29 03:59:27;;;;;;;2.00;0.30;;;;;;;;;;5025477;28;20022;-77
2022/12/29 04:01:53;;;;;;;0.70;0.20;;;;;;;;;;5012431;28;20056;-77
2022/12/29 04:04:19;;;;;;;1.27;0.50;;;;;;;;;;5012296;28;20701;-76
2022/12/29 04:06:45;;;;;;;1.77;0.37;;;;;;;;;;5006232;28;20044;-77
2022/12/29 04:09:11;;;;;;;1.03;0.37;;;;;;;;;;5021529;28;20056;-77
2022/12/29 04:11:37;;;;;;;0.40;0.40;;;;;;;;;;5018474;28;20037;-77
2022/12/29 04:14:06;;;;;;;1.80;0.40;;;;;;;;;;5012222;28;20034;-76
2022/12/29 04:16:35;;;;;;;1.50;0.33;;;;;;;;;;5024307;28;20029;-75
2022/12/29 04:19:01;;;;;;;2.97;0.87;;;;;;;;;;5011074;28;20907;-77
2022/12/29 04:21:27;;;;;;;0.93;0.23;;;;;;;;;;5003934;28;20026;-77
2022/12/29 04:23:53;;;;;;;0.90;0.40;;;;;;;;;;5007801;28;20068;-77
2022/12/29 04:26:19;;;;;;;1.37;0.50;;;;;;;;;;5024114;28;20026;-77
2022/12/29 04:28:45;;;;;;;1.70;0.40;;;;;;;;;;5025163;28;20029;-77
2022/12/29 04:31:11;;;;;;;0.70;0.30;;;;;;;;;;5005029;28;20061;-76
2022/12/29 04:33:37;;;;;;;1.07;0.40;;;;;;;;;;5004833;28;20092;-77
2022/12/29 04:36:06;;;;;;;1.33;0.30;;;;;;;;;;5003938;28;20041;-78
2022/12/29 04:38:32;;;;;;;0.80;0.40;;;;;;;;;;5019023;28;20567;-77
2022/12/29 04:41:00;;;;;;;2.40;0.47;;;;;;;;;;5003985;28;20049;-77
2022/12/29 04:43:26;;;;;;;0.30;0.30;;;;;;;;;;5020844;28;20029;-77
2022/12/29 04:45:52;;;;;;;1.97;0.40;;;;;;;;;;5005111;28;20033;-76
2022/12/29 04:48:18;;;;;;;1.13;0.40;;;;;;;;;;5010305;28;20095;-77
2022/12/29 04:50:44;;;;;;;1.23;0.50;;;;;;;;;;5021572;28;20041;-77
2022/12/29 04:53:10;;;;;;;3.73;0.40;;;;;;;;;;5001583;28;20034;-77
2022/12/29 04:55:36;;;;;;;0.37;0.30;;;;;;;;;;5009644;28;20033;-76
2022/12/29 04:58:03;;;;;;;0.70;0.40;;;;;;;;;;5002776;28;20667;-78
2022/12/29 05:00:29;;;;;;;1.83;0.30;;;;;;;;;;5009947;28;20025;-77
2022/12/29 05:02:55;;;;;;;0.57;0.20;;;;;;;;;;5023061;28;20025;-79
2022/12/29 05:05:21;;;;;;;2.20;0.33;;;;;;;;;;5005503;28;20029;-77
2022/12/29 05:07:47;;;;;;;0.83;0.33;;;;;;;;;;5002078;28;20121;-76
2022/12/29 05:10:13;;;;;;;1.63;0.40;;;;;;;;;;5005713;28;20030;-77
2022/12/29 05:12:39;;;;;;;2.10;0.60;;;;;;;;;;5002894;28;20033;-77
2022/12/29 05:15:06;;;;;;;1.10;0.40;;;;;;;;;;5003297;28;20095;-75
2022/12/29 05:17:32;;;;;;;0.80;0.30;;;;;;;;;;5003934;28;20017;-76
2022/12/29 05:20:01;;;;;;;0.43;0.20;;;;;;;;;;5008435;28;21491;-78
2022/12/29 05:22:29;;;;;;;1.53;0.23;;;;;;;;;;5018118;28;20029;-76
2022/12/29 05:24:59;;;;;;;2.00;0.20;;;;;;;;;;5020259;28;20124;-76
2022/12/29 05:27:27;;;;;;;1.87;0.50;;;;;;;;;;5001733;28;20455;-77
2022/12/29 05:29:53;;;;;;;4.03;0.90;;;;;;;;;;5022077;28;20040;-76
2022/12/29 05:32:19;;;;;;;3.60;0.30;;;;;;;;;;5003627;28;20091;-78
2022/12/29 05:34:45;;;;;;;2.87;0.40;;;;;;;;;;5006292;28;20042;-75
2022/12/29 05:37:12;;;;;;;1.97;0.43;;;;;;;;;;5030135;28;20075;-77
2022/12/29 05:39:38;;;;;;;4.20;0.50;;;;;;;;;;5009380;28;20029;-76
2022/12/29 05:42:04;;;;;;;0.83;0.47;;;;;;;;;;5029712;28;20030;-76
2022/12/29 05:44:30;;;;;;;0.27;0.20;;;;;;;;;;5016206;28;20045;-77
2022/12/29 05:46:56;;;;;;;2.63;0.30;;;;;;;;;;5011318;28;20099;-77
2022/12/29 05:49:22;;;;;;;5.57;0.30;;;;;;;;;;5010219;28;20034;-77
2022/12/29 05:51:48;;;;;;;5.10;0.50;;;;;;;;;;5011933;28;20274;-77
2022/12/29 05:54:16;;;;;;;3.50;0.50;;;;;;;;;;5010424;28;20442;-77
2022/12/29 05:56:42;;;;;;;4.23;0.50;;;;;;;;;;5015293;28;20056;-76
2022/12/29 05:59:10;;;;;;;0.67;0.33;;;;;;;;;;5027985;28;20048;-78
2022/12/29 06:01:39;;;;;;;1.43;0.30;;;;;;;;;;5008384;28;20052;-78
2022/12/29 06:04:05;;;;;;;1.23;0.50;;;;;;;;;;5028064;28;20029;-76
2022/12/29 06:06:31;;;;;;;2.20;0.40;;;;;;;;;;5009141;28;20040;-76
2022/12/29 06:08:57;;;;;;;2.50;0.30;;;;;;;;;;5015194;28;21642;-77
2022/12/29 06:11:25;;;;;;;1.50;0.20;;;;;;;;;;5010188;28;20060;-75
2022/12/29 06:13:51;;;;;;;2.00;0.30;;;;;;;;;;5027399;28;20037;-77
2022/12/29 06:16:17;;;;;;;2.20;0.40;;;;;;;;;;5008922;28;20096;-78
2022/12/29 06:18:43;;;;;;;2.07;0.50;;;;;;;;;;5007299;28;20033;-76
2022/12/29 06:21:09;;;;;;;3.73;0.60;;;;;;;;;;5027514;28;20719;-76
2022/12/29 06:23:35;;;;;;;4.20;0.50;;;;;;;;;;5027849;28;20036;-77
2022/12/29 06:26:04;;;;;;;1.80;0.40;;;;;;;;;;5010254;28;20042;-75
2022/12/29 06:28:30;;;;;;;0.90;0.40;;;;;;;;;;5009147;28;20057;-77
2022/12/29 06:30:58;;;;;;;1.50;0.30;;;;;;;;;;5011288;28;20161;-75
2022/12/29 06:33:24;;;;;;;3.23;0.67;;;;;;;;;;5007139;28;20056;-77
2022/12/29 06:35:50;;;;;;;3.63;0.50;;;;;;;;;;5015394;28;20032;-78
2022/12/29 06:38:16;;;;;;;1.20;0.30;;;;;;;;;;5028099;28;20045;-77
2022/12/29 06:40:44;;;;;;;0.73;0.20;;;;;;;;;;5030725;28;20041;-75
2022/12/29 06:43:10;;;;;;;1.40;0.40;;;;;;;;;;5026311;28;20033;-76
2022/12/29 06:45:38;;;;;;;1.93;0.53;;;;;;;;;;5004393;28;20037;-74
2022/12/29 06:48:04;;;;;;;3.70;0.73;;;;;;;;;;5008246;28;20044;-78
2022/12/29 06:50:30;;;;;;;0.97;0.30;;;;;;;;;;5004423;28;20041;-76
2022/12/29 06:52:56;;;;;;;6.60;0.50;;;;;;;;;;5022574;28;20030;-78
2022/12/29 06:55:25;;;;;;;2.77;0.70;;;;;;;;;;5006858;28;20034;-78
2022/12/29 06:57:54;;;;;;;1.00;0.37;;;;;;;;;;5023989;28;20029;-77
2022/12/29 07:00:20;;;;;;;1.80;0.57;;;;;;;;;;5004674;28;20041;-77
2022/12/29 07:02:46;;;;;;;1.53;0.60;;;;;;;;;;5010406;28;20029;-77
2022/12/29 07:05:13;;;;;;;4.30;0.30;;;;;;;;;;5021221;28;20871;-78
2022/12/29 07:07:41;;;;;;;2.10;0.40;;;;;;;;;;5024358;28;20037;-78
2022/12/29 07:10:07;;;;;;;3.10;0.37;;;;;;;;;;5024293;28;20108;-76
2022/12/29 07:12:33;;;;;;;1.10;0.20;;;;;;;;;;5005124;28;20095;-77
2022/12/29 07:14:59;;;;;;;1.70;0.50;;;;;;;;;;5002693;28;20087;-78
2022/12/29 07:17:25;;;;;;;3.13;0.63;;;;;;;;;;5002345;28;20045;-75
2022/12/29 07:19:51;;;;;;;2.03;0.27;;;;;;;;;;5002424;28;20034;-75
2022/12/29 07:22:17;;;;;;;1.63;0.40;;;;;;;;;;5005516;28;20033;-78
2022/12/29 07:24:46;;;;;;;1.13;0.70;;;;;;;;;;5026134;28;20045;-77
2022/12/29 07:27:12;;;;;;;1.20;0.50;;;;;;;;;;5021531;28;20075;-77
2022/12/29 07:29:40;;;;;;;2.50;0.80;;;;;;;;;;5006533;28;20412;-78
2022/12/29 07:32:09;;;;;;;3.70;0.57;;;;;;;;;;5002370;28;20057;-77
2022/12/29 07:34:35;;;;;;;2.63;0.53;;;;;;;;;;5022224;28;20060;-77
2022/12/29 07:37:01;;;;;;;3.67;0.50;;;;;;;;;;5010956;28;20033;-77
2022/12/29 07:39:29;;;;;;;1.13;0.50;;;;;;;;;;5003404;28;20038;-77
2022/12/29 07:41:55;;;;;;;4.43;0.93;;;;;;;;;;5003058;28;20033;-78
2022/12/29 07:44:21;;;;;;;2.53;0.50;;;;;;;;;;5005676;28;20026;-78
2022/12/29 07:46:47;;;;;;;5.27;0.53;;;;;;;;;;5003839;28;20029;-77
2022/12/29 07:49:13;;;;;;;2.63;0.60;;;;;;;;;;5009970;28;20063;-77
2022/12/29 07:51:39;;;;;;;2.53;0.50;;;;;;;;;;5003600;28;20449;-77
2022/12/29 07:54:05;;;;;;;3.97;0.70;;;;;;;;;;5001476;28;20417;-78
2022/12/29 07:56:31;;;;;;;3.27;0.50;;;;;;;;;;5023223;28;20579;-78
2022/12/29 07:58:57;;;;;;;1.60;0.60;;;;;;;;;;5022119;28;20046;-76
2022/12/29 08:01:23;;;;;;;3.23;1.00;;;;;;;;;;5001651;28;20393;-77
2022/12/29 08:03:50;;;;;;;4.73;0.80;;;;;;;;;;5019039;28;20904;-78
2022/12/29 08:06:19;;;;;;;5.20;1.00;;;;;;;;;;5017981;28;20033;-76
2022/12/29 08:08:45;;;;;;;7.63;0.83;;;;;;;;;;5003798;28;20124;-76
2022/12/29 08:11:11;;;;;;;1.80;0.60;;;;;;;;;;5005846;28;20044;-78
2022/12/29 08:13:37;;;;;;;3.90;0.57;;;;;;;;;;5004214;28;20037;-78
2022/12/29 08:16:04;;;;;;;6.03;1.23;;;;;;;;;;5004964;28;20037;-76
2022/12/29 08:18:30;;;;;;;5.07;1.10;;;;;;;;;;5004814;28;20030;-77
2022/12/29 08:20:56;;;;;;;3.90;1.13;;;;;;;;;;5020625;28;20029;-77
2022/12/29 08:23:22;;;;;;;4.87;0.70;;;;;;;;;;5004164;28;20041;-76
2022/12/29 08:25:56;;;;;;;2.77;0.60;;;;;;;;;;5002467;28;20113;-76
2022/12/29 08:28:23;;;;;;;7.60;1.27;;;;;;;;;;5002241;28;20736;-75
2022/12/29 08:30:49;;;;;;;7.90;1.13;;;;;;;;;;5003589;28;20122;-77
2022/12/29 08:33:15;;;;;;;3.40;0.70;;;;;;;;;;5020487;28;20021;-78
2022/12/29 08:35:41;;;;;;;5.30;0.97;;;;;;;;;;5009496;28;20815;-77
2022/12/29 08:38:07;;;;;;;8.63;1.07;;;;;;;;;;5004019;28;20112;-77
2022/12/29 08:40:33;;;;;;;8.20;1.10;;;;;;;;;;5004205;28;20116;-78
2022/12/29 08:42:59;;;;;;;4.27;0.80;;;;;;;;;;5019644;28;20116;-76
2022/12/29 08:45:25;;;;;;;6.27;0.90;;;;;;;;;;5008458;28;20044;-78
2022/12/29 08:47:51;;;;;;;3.57;0.83;;;;;;;;;;5002751;28;20032;-77
2022/12/29 08:50:17;;;;;;;2.20;0.60;;;;;;;;;;5004015;28;20033;-77
2022/12/29 08:52:43;;;;;;;6.93;1.20;;;;;;;;;;5002393;28;20447;-78
2022/12/29 08:55:11;;;;;;;6.53;1.20;;;;;;;;;;5004117;28;20054;-77
2022/12/29 08:57:37;;;;;;;6.13;1.47;;;;;;;;;;5004104;28;20871;-77
2022/12/29 09:00:04;;;;;;;7.10;1.60;;;;;;;;;;5004174;28;20113;-76
2022/12/29 09:02:30;;;;;;;6.40;0.93;;;;;;;;;;5009898;28;20034;-77
2022/12/29 09:05:00;;;;;;;10.37;1.07;;;;;;;;;;5000403;28;20579;-76
2022/12/29 09:07:26;;;;;;;7.73;1.00;;;;;;;;;;5003392;28;20029;-76
2022/12/29 09:09:52;;;;;;;3.87;1.00;;;;;;;;;;5001616;28;20688;-77
2022/12/29 09:12:20;;;;;;;5.13;1.17;;;;;;;;;;5004028;28;20160;-76
2022/12/29 09:14:46;;;;;;;4.20;0.93;;;;;;;;;;5009125;28;20050;-77
2022/12/29 09:20:00;;;;;;;5.00;1.20;;;;;;;;;;5022658;28;20049;-76
2022/12/29 09:22:26;;;;;;;5.67;1.03;;;;;;;;;;5023674;28;20033;-78
2022/12/29 09:24:52;;;;;;;6.43;0.60;;;;;;;;;;5021434;28;20029;-76
2022/12/29 09:27:18;;;;;;;7.87;1.27;;;;;;;;;;5007505;28;20037;-77
2022/12/29 09:29:44;;;;;;;3.47;1.20;;;;;;;;;;5006759;28;20174;-78
2022/12/29 09:32:15;;;;;;;7.10;1.50;;;;;;;;;;5021525;28;20037;-75
2022/12/29 09:34:41;;;;;;;8.53;1.23;;;;;;;;;;5005212;28;20029;-77
2022/12/29 09:37:07;;;;;;;8.43;1.80;;;;;;;;;;5007417;28;20075;-78
2022/12/29 09:39:33;;;;;;;8.77;2.50;;;;;;;;;;5007537;28;21583;-78
2022/12/29 09:42:02;;;;;;;7.63;1.23;;;;;;;;;;4999421;28;20458;-78
2022/12/29 09:44:43;;;;;;;7.60;1.43;;;;;;;;;;5008448;28;20152;-77
2022/12/29 09:47:11;;;;;;;4.80;1.20;;;;;;;;;;5001028;28;20037;-78
2022/12/29 09:49:45;;;;;;;4.80;1.20;;;;;;;;;;5022246;28;20037;-76
2022/12/29 09:52:14;;;;;;;7.60;1.63;;;;;;;;;;5019244;28;20636;-76
2022/12/29 09:54:53;;;;;;;9.17;0.93;;;;;;;;;;5020456;28;20038;-75
2022/12/29 09:57:26;;;;;;;28.83;1.60;;;;;;;;;;5019156;28;20457;-77
2022/12/29 09:59:55;;;;;;;11.53;0.87;;;;;;;;;;5022461;28;20065;-77
2022/12/29 10:02:25;;;;;;;4.40;0.90;;;;;;;;;;5003630;28;20061;-76
2022/12/29 10:04:52;;;;;;;13.67;1.40;;;;;;;;;;5004205;28;20033;-76
2022/12/29 10:07:27;;;;;;;6.93;1.30;;;;;;;;;;5003923;28;20030;-76
2022/12/29 10:09:56;;;;;;;7.73;1.53;;;;;;;;;;5000072;28;20039;-76
2022/12/29 10:12:25;;;;;;;6.13;1.10;;;;;;;;;;5001617;28;20091;-76
2022/12/29 10:15:03;;;;;;;6.23;1.20;;;;;;;;;;5002974;28;20060;-76
2022/12/29 10:17:29;;;;;;;3.77;0.80;;;;;;;;;;5002306;28;20399;-76
2022/12/29 10:20:06;;;;;;;8.70;1.00;;;;;;;;;;5022150;28;20056;-78
2022/12/29 10:22:44;;;;;;;7.07;1.10;;;;;;;;;;5004840;28;20037;-76
2022/12/29 10:25:31;;;;;;;6.53;1.40;;;;;;;;;;5005774;28;20059;-76
2022/12/29 10:27:59;;;;;;;9.63;1.43;;;;;;;;;;5006356;28;20897;-76
2022/12/29 10:30:26;;;;;;;5.77;1.27;;;;;;;;;;5004001;28;21617;-76
2022/12/29 10:32:55;;;;;;;6.97;1.17;;;;;;;;;;5022162;28;20025;-76
2022/12/29 10:35:21;;;;;;;10.47;2.00;;;;;;;;;;5024653;28;20060;-76
2022/12/29 10:37:58;;;;;;;6.07;1.13;;;;;;;;;;5024644;28;20498;-78
2022/12/29 10:40:34;;;;;;;7.40;1.60;;;;;;;;;;5005043;28;20040;-76
2022/12/29 10:43:00;;;;;;;8.50;1.50;;;;;;;;;;5005734;28;20116;-76
2022/12/29 10:45:29;;;;;;;2.80;1.10;;;;;;;;;;5007373;28;20045;-77
2022/12/29 10:47:58;;;;;;;5.83;1.00;;;;;;;;;;5010971;28;20068;-76
2022/12/29 10:50:29;;;;;;;6.50;1.33;;;;;;;;;;5010040;28;20041;-76
2022/12/29 10:52:56;;;;;;;4.03;0.93;;;;;;;;;;5024862;28;20339;-77
2022/12/29 10:55:27;;;;;;;7.03;1.30;;;;;;;;;;5022263;28;20036;-75
2022/12/29 10:57:54;;;;;;;8.07;1.00;;;;;;;;;;5021118;28;20095;-77
2022/12/29 11:00:21;;;;;;;7.93;1.30;;;;;;;;;;5023171;28;20036;-77
2022/12/29 11:02:49;;;;;;;9.93;2.00;;;;;;;;;;5023048;28;20032;-75
2022/12/29 11:05:34;;;;;;;8.50;1.80;;;;;;;;;;5002956;28;20037;-77
2022/12/29 11:08:04;;;;;;;7.20;1.20;;;;;;;;;;5020059;28;20552;-77
2022/12/29 11:10:39;;;;;;;8.57;1.33;;;;;;;;;;5002325;28;20139;-77
2022/12/29 11:13:20;;;;;;;5.93;1.30;;;;;;;;;;5005565;28;20184;-75
2022/12/29 11:15:50;;;;;;;6.53;1.23;;;;;;;;;;5005463;28;20033;-76
2022/12/29 11:18:25;;;;;;;7.93;1.40;;;;;;;;;;5010465;28;20033;-77
2022/12/29 11:20:53;;;;;;;4.40;1.30;;;;;;;;;;5020368;28;20050;-77
2022/12/29 11:23:39;;;;;;;6.20;1.27;;;;;;;;;;5022327;28;20029;-76
2022/12/29 11:26:11;;;;;;;7.17;1.40;;;;;;;;;;5010045;28;20030;-76
2022/12/29 11:28:37;;;;;;;11.00;1.75;;;;;;;;;;5009963;28;20033;-76
2022/12/29 11:31:04;;;;;;;9.83;1.33;;;;;;;;;;5006573;28;20040;-77
2022/12/29 11:33:33;;;;;;;7.33;1.30;;;;;;;;;;5002663;28;20036;-77
2022/12/29 11:36:11;;;;;;;8.70;1.27;;;;;;;;;;5004535;28;20120;-76
2022/12/29 11:38:39;;;;;;;10.50;1.27;;;;;;;;;;5023464;28;20142;-77
2022/12/29 11:41:06;;;;;;;13.17;1.73;;;;;;;;;;5024813;28;20048;-78
2022/12/29 11:43:34;;;;;;;6.27;1.17;;;;;;;;;;5020398;28;20045;-77
2022/12/29 11:46:03;;;;;;;12.63;1.47;;;;;;;;;;5003947;28;20034;-77
2022/12/29 11:48:30;;;;;;;4.73;1.23;;;;;;;;;;5002346;28;20460;-76
2022/12/29 11:51:01;;;;;;;6.33;1.10;;;;;;;;;;5006519;28;20038;-78
2022/12/29 11:53:48;;;;;;;7.57;1.50;;;;;;;;;;5005804;28;20038;-76
2022/12/29 11:56:17;;;;;;;12.20;1.77;;;;;;;;;;5022198;28;20048;-76
2022/12/29 11:58:49;;;;;;;3.57;0.77;;;;;;;;;;5002448;28;20030;-74
2022/12/29 12:01:30;;;;;;;4.25;0.80;;;;;;;;;;5006620;28;20133;-77
2022/12/29 12:04:13;;;;;;;11.60;1.80;;;;;;;;;;5004254;28;20104;-76
2022/12/29 12:06:45;;;;;;;5.10;0.77;;;;;;;;;;5004830;28;20076;-77
2022/12/29 12:09:17;;;;;;;8.68;1.55;;;;;;;;;;5021283;28;21593;-77
2022/12/29 12:11:45;;;;;;;3.33;0.90;;;;;;;;;;5003000;28;20045;-76
2022/12/29 12:14:32;;;;;;;4.80;1.10;;;;;;;;;;5021596;28;20037;-75
2022/12/29 12:17:06;;;;;;;5.63;1.43;;;;;;;;;;5021894;28;20107;-75
2022/12/29 12:19:41;;;;;;;6.13;1.27;;;;;;;;;;5005421;28;20116;-78
2022/12/29 12:22:16;;;;;;;5.43;1.00;;;;;;;;;;5003075;28;20030;-77
2022/12/29 12:24:49;;;;;;;7.60;1.43;;;;;;;;;;5003028;28;20423;-77
2022/12/29 12:27:30;;;;;;;7.67;1.97;;;;;;;;;;5007659;28;20040;-76
2022/12/29 12:30:26;;;;;;;7.97;1.27;;;;;;;;;;5018102;28;20033;-76
2022/12/29 12:33:03;;;;;;;8.67;1.43;;;;;;;;;;4996322;28;20061;-76
2022/12/29 12:35:44;;;;;;;5.27;1.97;;;;;;;;;;5022532;28;20516;-75
2022/12/29 12:38:10;;;;;;;8.00;1.50;;;;;;;;;;5021963;28;20376;-78
2022/12/29 12:40:36;;;;;;;7.43;1.23;;;;;;;;;;5003843;28;20061;-77
2022/12/29 12:43:12;;;;;;;9.03;1.50;;;;;;;;;;5001986;28;20033;-76
2022/12/29 12:45:57;;;;;;;8.07;1.27;;;;;;;;;;5001357;28;20034;-76
2022/12/29 12:48:44;;;;;;;5.43;1.13;;;;;;;;;;5019177;28;20034;-77
2022/12/29 12:51:29;;;;;;;12.03;2.17;;;;;;;;;;5020957;28;20038;-77
2022/12/29 12:53:58;;;;;;;7.23;1.30;;;;;;;;;;5002847;28;20032;-77
2022/12/29 12:56:27;;;;;;;9.23;1.70;;;;;;;;;;5003472;28;20069;-77
2022/12/29 12:59:19;;;;;;;6.53;1.10;;;;;;;;;;5018058;28;20091;-76
2022/12/29 13:01:56;;;;;;;10.43;1.23;;;;;;;;;;5013164;28;20037;-75
2022/12/29 13:04:27;;;;;;;8.77;1.60;;;;;;;;;;5018619;28;20463;-77
2022/12/29 13:07:12;;;;;;;5.73;1.10;;;;;;;;;;5000904;28;20052;-77
2022/12/29 13:09:59;;;;;;;7.03;1.47;;;;;;;;;;5002417;28;20038;-77
2022/12/29 13:12:43;;;;;;;8.00;1.57;;;;;;;;;;5001291;28;20040;-75
2022/12/29 13:15:16;;;;;;;6.80;1.30;;;;;;;;;;5018153;28;20107;-79
2022/12/29 13:17:50;;;;;;;9.10;1.23;;;;;;;;;;5020109;28;20037;-77
2022/12/29 13:20:45;;;;;;;6.50;1.40;;;;;;;;;;5008336;28;20029;-78
2022/12/29 13:23:17;;;;;;;5.60;0.83;;;;;;;;;;5003683;28;20041;-78
2022/12/29 13:26:02;;;;;;;8.73;1.10;;;;;;;;;;5020429;28;20029;-78
2022/12/29 13:28:33;;;;;;;6.83;1.53;;;;;;;;;;5018159;28;20068;-77
2022/12/29 13:31:12;;;;;;;7.00;1.50;;;;;;;;;;5020040;28;20037;-79
2022/12/29 13:33:38;;;;;;;7.40;1.03;;;;;;;;;;5000685;28;20033;-75
2022/12/29 13:36:25;;;;;;;7.00;1.03;;;;;;;;;;5020089;28;20155;-77
2022/12/29 13:39:11;;;;;;;7.07;1.67;;;;;;;;;;5021003;28;20083;-77
2022/12/29 13:41:40;;;;;;;11.67;1.40;;;;;;;;;;5021315;28;20033;-76
2022/12/29 13:44:07;;;;;;;5.60;1.27;;;;;;;;;;5019666;28;20114;-77
2022/12/29 13:46:43;;;;;;;5.80;1.40;;;;;;;;;;5019212;28;20072;-77
2022/12/29 13:49:15;;;;;;;13.50;2.13;;;;;;;;;;5002614;28;20104;-77
2022/12/29 13:51:43;;;;;;;5.75;0.98;;;;;;;;;;5001069;28;20037;-76
2022/12/29 13:54:18;;;;;;;4.73;1.17;;;;;;;;;;5007485;28;20034;-77
2022/12/29 13:56:55;;;;;;;7.20;1.50;;;;;;;;;;5020949;28;20025;-77
2022/12/29 13:59:24;;;;;;;5.90;0.80;;;;;;;;;;5011867;28;20449;-76
2022/12/29 14:01:54;;;;;;;4.33;0.90;;;;;;;;;;5003670;28;20469;-75
2022/12/29 14:04:25;;;;;;;5.57;1.00;;;;;;;;;;5024228;28;20033;-76
2022/12/29 14:07:00;;;;;;;10.13;1.30;;;;;;;;;;5013292;28;20038;-76
2022/12/29 14:09:42;;;;;;;4.13;0.97;;;;;;;;;;5023331;28;20537;-74
2022/12/29 14:12:27;;;;;;;4.03;1.30;;;;;;;;;;5027295;28;20065;-76
2022/12/29 14:14:53;;;;;;;7.47;0.90;;;;;;;;;;5013366;28;20037;-78
2022/12/29 14:17:20;;;;;;;7.97;0.90;;;;;;;;;;5005451;28;20022;-77
2022/12/29 14:19:47;;;;;;;5.47;1.00;;;;;;;;;;5023349;28;20084;-77
2022/12/29 14:22:13;;;;;;;7.80;1.77;;;;;;;;;;5007736;28;20095;-75
2022/12/29 14:24:41;;;;;;;6.50;1.20;;;;;;;;;;5003061;28;20030;-77
2022/12/29 14:27:29;;;;;;;7.10;1.43;;;;;;;;;;5006393;28;20438;-77
2022/12/29 14:29:55;;;;;;;6.17;0.50;;;;;;;;;;5011103;28;20036;-76
2022/12/29 14:32:21;;;;;;;2.67;0.80;;;;;;;;;;5009487;28;20034;-76
2022/12/29 14:34:48;;;;;;;9.80;1.63;;;;;;;;;;5011157;28;20044;-77
2022/12/29 14:37:32;;;;;;;9.97;1.57;;;;;;;;;;5002378;28;20061;-77
2022/12/29 14:40:22;;;;;;;7.63;1.47;;;;;;;;;;5005882;28;20038;-77
2022/12/29 14:42:49;;;;;;;6.50;1.57;;;;;;;;;;5020595;28;20036;-77
2022/12/29 14:45:15;;;;;;;3.83;1.10;;;;;;;;;;5023606;28;20057;-76
2022/12/29 14:47:42;;;;;;;5.20;0.80;;;;;;;;;;5004098;28;20910;-77
2022/12/29 14:50:11;;;;;;;7.43;1.67;;;;;;;;;;5005951;28;20029;-77
2022/12/29 14:52:46;;;;;;;9.37;2.00;;;;;;;;;;5003411;28;20033;-76
2022/12/29 14:55:15;;;;;;;6.77;1.67;;;;;;;;;;5003441;28;20427;-77
2022/12/29 14:57:45;;;;;;;9.43;1.67;;;;;;;;;;5005503;28;20039;-77
2022/12/29 15:00:17;;;;;;;11.37;2.00;;;;;;;;;;5007679;28;20121;-77
2022/12/29 15:02:47;;;;;;;6.05;1.40;;;;;;;;;;5023002;28;20064;-77
2022/12/29 15:05:49;;;;;;;5.43;1.03;;;;;;;;;;5023425;28;21776;-78
2022/12/29 15:08:17;;;;;;;10.00;1.70;;;;;;;;;;4983825;28;20034;-74
2022/12/29 15:10:48;;;;;;;8.30;1.60;;;;;;;;;;5016024;28;20053;-77
2022/12/29 15:13:25;;;;;;;7.70;1.60;;;;;;;;;;5023012;28;20033;-77
2022/12/29 15:15:54;;;;;;;8.13;2.00;;;;;;;;;;5002750;28;20462;-75
2022/12/29 15:18:26;;;;;;;8.33;1.40;;;;;;;;;;5021659;28;20030;-76
2022/12/29 15:20:55;;;;;;;5.53;1.17;;;;;;;;;;5005615;28;20022;-76
2022/12/29 15:23:24;;;;;;;8.77;1.63;;;;;;;;;;5003822;28;20033;-76
2022/12/29 15:25:56;;;;;;;10.07;1.53;;;;;;;;;;5010117;28;20065;-77
2022/12/29 15:28:22;;;;;;;9.23;3.15;;;;;;;;;;5018606;28;20017;-78
2022/12/29 15:30:55;;;;;;;9.00;1.40;;;;;;;;;;5002591;28;20033;-77
2022/12/29 15:33:23;;;;;;;11.27;1.50;;;;;;;;;;5008738;28;20576;-78
2022/12/29 15:35:53;;;;;;;11.93;1.53;;;;;;;;;;5008893;28;20030;-77